createdAt,value
2022-08-30T00:01:28.546Z,20.70
2022-08-30T00:03:01.377Z,20.71
2022-08-30T00:04:35.109Z,20.71
2022-08-30T00:06:07.994Z,20.72
2022-08-30T00:07:39.874Z,20.68
2022-08-30T00:09:12.230Z,20.68
2022-08-30T00:10:44.152Z,20.66
2022-08-30T00:12:15.939Z,20.66
2022-08-30T00:13:50.759Z,20.63
2022-08-30T00:15:23.110Z,20.62
2022-08-30T00:16:55.043Z,20.60
2022-08-30T00:18:26.955Z,20.54
2022-08-30T00:19:58.919Z,20.54
2022-08-30T00:21:30.765Z,20.51
2022-08-30T00:23:03.827Z,20.50
2022-08-30T00:24:35.740Z,20.50
2022-08-30T00:26:08.306Z,20.48
2022-08-30T00:27:40.200Z,20.43
2022-08-30T00:29:12.022Z,20.43
2022-08-30T00:30:44.625Z,20.42
2022-08-30T00:32:16.570Z,20.38
2022-08-30T00:33:48.457Z,20.33
2022-08-30T00:35:20.671Z,20.33
2022-08-30T00:36:52.498Z,20.33
2022-08-30T00:38:24.910Z,20.33
2022-08-30T00:39:56.884Z,20.30
2022-08-30T00:41:28.955Z,20.28
2022-08-30T00:43:05.582Z,20.29
2022-08-30T00:44:37.856Z,20.31
2022-08-30T00:46:10.472Z,20.33
2022-08-30T00:47:42.399Z,20.34
2022-08-30T00:49:14.662Z,20.34
2022-08-30T00:50:49.894Z,20.35
2022-08-30T00:52:22.733Z,20.33
2022-08-30T00:53:56.903Z,20.35
2022-08-30T00:55:29.406Z,20.35
2022-08-30T00:57:01.247Z,20.35
2022-08-30T00:58:36.874Z,20.34
2022-08-30T01:00:09.688Z,20.36
2022-08-30T01:01:42.999Z,20.35
2022-08-30T01:03:15.870Z,20.37
2022-08-30T01:04:48.589Z,20.39
2022-08-30T01:06:20.889Z,20.41
2022-08-30T01:07:52.747Z,20.43
2022-08-30T01:09:24.682Z,20.39
2022-08-30T01:10:57.528Z,20.41
2022-08-30T01:12:30.188Z,20.42
2022-08-30T01:14:02.048Z,20.42
2022-08-30T01:15:34.525Z,20.39
2022-08-30T01:17:06.661Z,20.37
2022-08-30T01:18:39.542Z,20.34
2022-08-30T01:20:18.896Z,20.35
2022-08-30T01:21:54.781Z,20.33
2022-08-30T01:23:27.550Z,20.33
2022-08-30T01:25:00.715Z,20.27
2022-08-30T01:26:33.171Z,20.27
2022-08-30T01:28:07.609Z,20.27
2022-08-30T01:29:39.441Z,20.27
2022-08-30T01:31:11.485Z,20.25
2022-08-30T01:32:45.476Z,20.23
2022-08-30T01:34:17.392Z,20.20
2022-08-30T01:36:04.383Z,20.18
2022-08-30T01:37:36.896Z,20.20
2022-08-30T01:39:10.129Z,20.21
2022-08-30T01:40:42.295Z,20.22
2022-08-30T01:42:17.437Z,20.22
2022-08-30T01:43:50.952Z,20.23
2022-08-30T01:45:22.873Z,20.23
2022-08-30T01:46:54.869Z,20.25
2022-08-30T01:48:31.066Z,20.25
2022-08-30T01:50:06.259Z,20.24
2022-08-30T01:51:39.152Z,20.24
2022-08-30T01:53:13.085Z,20.24
2022-08-30T01:54:45.834Z,20.27
2022-08-30T01:56:17.824Z,20.28
2022-08-30T01:57:49.971Z,20.24
2022-08-30T01:59:21.817Z,20.20
2022-08-30T02:00:53.652Z,20.18
2022-08-30T02:02:27.808Z,20.15
2022-08-30T02:03:59.895Z,20.15
2022-08-30T02:05:32.097Z,20.15
2022-08-30T02:07:04.818Z,20.12
2022-08-30T02:08:37.023Z,20.13
2022-08-30T02:10:09.395Z,20.11
2022-08-30T02:11:41.293Z,20.10
2022-08-30T02:13:13.531Z,20.08
2022-08-30T02:14:45.360Z,20.06
2022-08-30T02:16:23.004Z,20.06
2022-08-30T02:17:57.121Z,20.05
2022-08-30T02:19:29.935Z,20.04
2022-08-30T02:21:01.600Z,20.06
2022-08-30T02:22:33.479Z,20.00
2022-08-30T02:24:05.625Z,20.00
2022-08-30T02:25:37.574Z,19.98
2022-08-30T02:27:09.502Z,19.98
2022-08-30T02:28:49.581Z,20.00
2022-08-30T02:30:22.220Z,19.99
2022-08-30T02:31:54.229Z,19.98
2022-08-30T02:33:25.974Z,19.98
2022-08-30T02:34:57.835Z,19.98
2022-08-30T02:36:29.591Z,19.97
2022-08-30T02:38:01.406Z,19.96
2022-08-30T02:39:33.235Z,19.92
2022-08-30T02:41:05.413Z,19.91
2022-08-30T02:42:37.193Z,19.88
2022-08-30T02:44:10.056Z,19.88
2022-08-30T02:45:42.303Z,19.88
2022-08-30T02:47:14.202Z,19.84
2022-08-30T02:48:46.043Z,19.81
2022-08-30T02:50:18.315Z,19.76
2022-08-30T02:51:50.472Z,19.73
2022-08-30T02:53:23.180Z,19.73
2022-08-30T02:54:55.399Z,19.73
2022-08-30T02:56:28.803Z,19.74
2022-08-30T02:58:00.770Z,19.76
2022-08-30T02:59:32.831Z,19.76
2022-08-30T03:01:05.924Z,19.76
2022-08-30T03:02:38.204Z,19.74
2022-08-30T03:04:10.252Z,19.73
2022-08-30T03:05:42.397Z,19.71
2022-08-30T03:07:14.637Z,19.68
2022-08-30T03:08:46.399Z,19.64
2022-08-30T03:10:18.277Z,19.64
2022-08-30T03:11:50.262Z,19.61
2022-08-30T03:13:22.140Z,19.62
2022-08-30T03:14:54.165Z,19.61
2022-08-30T03:16:26.063Z,19.62
2022-08-30T03:17:58.603Z,19.62
2022-08-30T03:19:30.508Z,19.59
2022-08-30T03:21:02.291Z,19.55
2022-08-30T03:22:34.335Z,19.54
2022-08-30T03:24:06.535Z,19.55
2022-08-30T03:25:39.557Z,19.54
2022-08-30T03:27:17.500Z,19.50
2022-08-30T03:28:49.340Z,19.48
2022-08-30T03:30:21.266Z,19.48
2022-08-30T03:31:54.113Z,19.47
2022-08-30T03:33:26.477Z,19.47
2022-08-30T03:34:59.898Z,19.46
2022-08-30T03:36:32.597Z,19.47
2022-08-30T03:38:04.362Z,19.49
2022-08-30T03:39:36.230Z,19.48
2022-08-30T03:41:09.161Z,19.47
2022-08-30T03:42:41.614Z,19.45
2022-08-30T03:44:15.363Z,19.45
2022-08-30T03:45:47.210Z,19.45
2022-08-30T03:47:19.146Z,19.44
2022-08-30T03:48:52.272Z,19.42
2022-08-30T03:50:24.169Z,19.41
2022-08-30T03:51:56.000Z,19.38
2022-08-30T03:53:27.889Z,19.36
2022-08-30T03:55:01.246Z,19.36
2022-08-30T03:56:33.060Z,19.36
2022-08-30T03:58:04.897Z,19.37
2022-08-30T03:59:36.842Z,19.38
2022-08-30T04:01:08.730Z,19.35
2022-08-30T04:02:41.882Z,19.34
2022-08-30T04:04:18.613Z,19.34
2022-08-30T04:05:53.897Z,19.32
2022-08-30T04:07:25.808Z,19.33
2022-08-30T04:08:57.639Z,19.34
2022-08-30T04:10:29.439Z,19.33
2022-08-30T04:12:01.284Z,19.33
2022-08-30T04:13:33.913Z,19.32
2022-08-30T04:15:06.327Z,19.34
2022-08-30T04:16:38.229Z,19.31
2022-08-30T04:18:10.357Z,19.28
2022-08-30T04:19:42.202Z,19.26
2022-08-30T04:21:14.355Z,19.26
2022-08-30T04:22:46.181Z,19.26
2022-08-30T04:24:18.070Z,19.27
2022-08-30T04:25:49.914Z,19.26
2022-08-30T04:27:21.766Z,19.27
2022-08-30T04:28:54.996Z,19.23
2022-08-30T04:30:26.856Z,19.19
2022-08-30T04:31:58.696Z,19.18
2022-08-30T04:33:30.458Z,19.17
2022-08-30T04:35:07.145Z,19.16
2022-08-30T04:36:39.131Z,19.14
2022-08-30T04:38:13.374Z,19.15
2022-08-30T04:39:46.463Z,19.14
2022-08-30T04:41:19.634Z,19.13
2022-08-30T04:42:54.480Z,19.11
2022-08-30T04:44:27.600Z,19.09
2022-08-30T04:45:59.571Z,19.07
2022-08-30T04:47:31.801Z,19.07
2022-08-30T04:49:04.593Z,19.06
2022-08-30T04:50:38.443Z,19.06
2022-08-30T04:52:16.771Z,19.05
2022-08-30T04:53:48.710Z,19.04
2022-08-30T04:55:20.660Z,19.05
2022-08-30T04:56:52.466Z,19.03
2022-08-30T04:58:24.829Z,19.02
2022-08-30T04:59:56.713Z,19.04
2022-08-30T05:01:30.855Z,19.02
2022-08-30T05:03:02.685Z,19.03
2022-08-30T05:04:34.498Z,19.01
2022-08-30T05:06:06.570Z,19.03
2022-08-30T05:07:38.397Z,19.00
2022-08-30T05:09:10.354Z,18.99
2022-08-30T05:10:45.044Z,18.97
2022-08-30T05:12:16.895Z,18.94
2022-08-30T05:13:49.890Z,18.95
2022-08-30T05:15:22.522Z,18.93
2022-08-30T05:16:54.410Z,18.93
2022-08-30T05:18:26.908Z,18.91
2022-08-30T05:20:01.528Z,18.91
2022-08-30T05:21:33.379Z,18.87
2022-08-30T05:23:06.235Z,18.84
2022-08-30T05:24:37.922Z,18.87
2022-08-30T05:26:13.418Z,18.83
2022-08-30T05:27:45.303Z,18.82
2022-08-30T05:29:17.152Z,18.82
2022-08-30T05:30:49.007Z,18.83
2022-08-30T05:32:20.847Z,18.81
2022-08-30T05:33:54.146Z,18.79
2022-08-30T05:35:26.089Z,18.78
2022-08-30T05:36:57.987Z,18.77
2022-08-30T05:38:29.792Z,18.78
2022-08-30T05:40:02.019Z,18.81
2022-08-30T05:41:35.508Z,18.83
2022-08-30T05:43:10.159Z,18.83
2022-08-30T05:44:48.703Z,18.85
2022-08-30T05:46:22.161Z,18.82
2022-08-30T05:47:54.265Z,18.81
2022-08-30T05:49:26.095Z,18.79
2022-08-30T05:51:12.036Z,18.80
2022-08-30T05:52:45.282Z,18.82
2022-08-30T05:54:17.176Z,18.82
2022-08-30T05:55:49.011Z,18.82
2022-08-30T05:57:20.900Z,18.81
2022-08-30T05:58:53.101Z,18.80
2022-08-30T06:00:25.085Z,18.82
2022-08-30T06:01:58.079Z,18.83
2022-08-30T06:03:32.916Z,18.83
2022-08-30T06:05:05.279Z,18.85
2022-08-30T06:06:39.737Z,18.87
2022-08-30T06:08:11.580Z,18.90
2022-08-30T06:09:43.454Z,18.89
2022-08-30T06:11:17.782Z,18.87
2022-08-30T06:12:49.674Z,18.89
2022-08-30T06:14:21.706Z,18.94
2022-08-30T06:15:53.576Z,18.94
2022-08-30T06:17:25.461Z,18.94
2022-08-30T06:18:58.568Z,18.94
2022-08-30T06:20:30.456Z,18.94
2022-08-30T06:22:02.351Z,18.95
2022-08-30T06:23:34.622Z,18.94
2022-08-30T06:25:06.921Z,18.98
2022-08-30T06:26:41.654Z,18.94
2022-08-30T06:28:13.679Z,18.96
2022-08-30T06:29:45.539Z,18.95
2022-08-30T06:31:19.459Z,18.91
2022-08-30T06:32:51.319Z,18.92
2022-08-30T06:34:23.214Z,18.96
2022-08-30T06:35:58.853Z,18.97
2022-08-30T06:37:33.071Z,18.96
2022-08-30T06:39:05.916Z,18.95
2022-08-30T06:40:37.841Z,18.99
2022-08-30T06:42:09.806Z,18.99
2022-08-30T06:43:44.468Z,19.02
2022-08-30T06:45:20.698Z,19.05
2022-08-30T06:46:52.597Z,19.07
2022-08-30T06:48:24.538Z,19.12
2022-08-30T06:49:57.057Z,19.17
2022-08-30T06:51:31.673Z,19.26
2022-08-30T06:53:06.165Z,19.31
2022-08-30T06:54:38.565Z,19.34
2022-08-30T06:56:16.552Z,19.39
2022-08-30T06:57:49.179Z,19.44
2022-08-30T06:59:21.063Z,19.48
2022-08-30T07:00:53.323Z,19.52
2022-08-30T07:02:25.837Z,19.54
2022-08-30T07:03:58.829Z,19.57
2022-08-30T07:05:30.677Z,19.57
2022-08-30T07:07:02.610Z,19.59
2022-08-30T07:08:34.455Z,19.64
2022-08-30T07:10:08.084Z,19.69
2022-08-30T07:11:40.650Z,19.75
2022-08-30T07:13:12.672Z,19.80
2022-08-30T07:14:44.655Z,19.88
2022-08-30T07:16:16.559Z,19.93
2022-08-30T07:18:06.950Z,20.00
2022-08-30T07:19:38.800Z,20.07
2022-08-30T07:21:13.738Z,20.15
2022-08-30T07:22:46.629Z,20.29
2022-08-30T07:24:19.613Z,20.42
2022-08-30T07:25:51.490Z,20.52
2022-08-30T07:27:23.268Z,20.59
2022-08-30T07:28:56.175Z,20.59
2022-08-30T07:30:28.358Z,20.61
2022-08-30T07:32:00.285Z,20.64
2022-08-30T07:33:32.684Z,20.68
2022-08-30T07:35:05.346Z,20.77
2022-08-30T07:36:38.058Z,20.83
2022-08-30T07:38:14.284Z,20.90
2022-08-30T07:39:48.064Z,20.94
2022-08-30T07:41:26.627Z,21.00
2022-08-30T07:43:02.139Z,21.01
2022-08-30T07:44:34.016Z,21.02
2022-08-30T07:46:07.950Z,21.08
2022-08-30T07:47:41.132Z,21.14
2022-08-30T07:49:13.159Z,21.25
2022-08-30T07:50:46.211Z,21.32
2022-08-30T07:52:18.014Z,21.39
2022-08-30T07:53:49.851Z,21.41
2022-08-30T07:55:21.790Z,21.46
2022-08-30T07:56:55.906Z,21.47
2022-08-30T07:58:27.883Z,21.51
2022-08-30T07:59:59.849Z,21.56
2022-08-30T08:01:32.085Z,21.59
2022-08-30T08:03:08.641Z,21.57
2022-08-30T08:04:40.826Z,21.61
2022-08-30T08:06:14.811Z,21.69
2022-08-30T08:07:46.791Z,21.75
2022-08-30T08:09:19.839Z,21.81
2022-08-30T08:10:51.800Z,21.89
2022-08-30T08:12:23.675Z,21.95
2022-08-30T08:13:55.677Z,22.02
2022-08-30T08:15:28.654Z,22.10
2022-08-30T08:17:00.949Z,22.17
2022-08-30T08:18:33.464Z,22.21
2022-08-30T08:20:08.580Z,22.25
2022-08-30T08:21:40.674Z,22.32
2022-08-30T08:23:12.556Z,22.37
2022-08-30T08:24:44.604Z,22.49
2022-08-30T08:26:16.529Z,22.56
2022-08-30T08:27:50.846Z,22.64
2022-08-30T08:29:23.135Z,22.71
2022-08-30T08:30:55.903Z,22.78
2022-08-30T08:32:27.836Z,22.83
2022-08-30T08:35:33.817Z,22.89
2022-08-30T08:37:05.706Z,22.93
2022-08-30T08:38:37.891Z,22.94
2022-08-30T08:40:15.264Z,22.94
2022-08-30T08:42:18.098Z,22.95
2022-08-30T08:43:49.975Z,23.01
2022-08-30T08:45:27.250Z,23.12
2022-08-30T08:47:06.122Z,23.15
2022-08-30T08:49:00.071Z,23.26
2022-08-30T08:50:32.413Z,23.31
2022-08-30T08:52:24.853Z,23.28
2022-08-30T08:54:06.967Z,23.30
2022-08-30T08:55:49.194Z,23.37
2022-08-30T08:57:24.466Z,23.39
2022-08-30T08:58:58.131Z,23.42
2022-08-30T09:00:32.259Z,23.44
2022-08-30T09:02:28.700Z,23.44
2022-08-30T09:04:08.052Z,23.46
2022-08-30T09:05:40.864Z,23.48
2022-08-30T09:07:21.509Z,23.53
2022-08-30T09:08:53.305Z,23.62
2022-08-30T09:10:46.975Z,23.70
2022-08-30T09:12:18.222Z,23.78
2022-08-30T09:13:50.703Z,23.84
2022-08-30T09:15:29.815Z,23.94
2022-08-30T09:17:11.195Z,24.02
2022-08-30T09:18:46.911Z,24.05
2022-08-30T09:20:26.582Z,24.18
2022-08-30T09:21:59.863Z,24.27
2022-08-30T09:23:32.566Z,24.40
2022-08-30T09:25:19.135Z,24.54
2022-08-30T09:26:50.979Z,24.64
2022-08-30T09:28:35.860Z,24.73
2022-08-30T09:30:15.613Z,24.85
2022-08-30T09:32:05.637Z,24.94
2022-08-30T09:33:55.505Z,25.00
2022-08-30T09:35:48.855Z,25.14
2022-08-30T09:37:37.189Z,25.30
2022-08-30T09:39:41.666Z,25.55
2022-08-30T09:41:40.399Z,25.70
2022-08-30T09:43:18.412Z,25.75
2022-08-30T09:44:50.746Z,25.83
2022-08-30T09:46:24.704Z,25.93
2022-08-30T09:47:56.597Z,25.99
2022-08-30T09:49:37.919Z,26.08
2022-08-30T09:51:13.339Z,26.15
2022-08-30T09:53:14.925Z,26.16
2022-08-30T09:55:21.180Z,26.29
2022-08-30T09:57:01.820Z,26.48
2022-08-30T09:59:11.799Z,26.63
2022-08-30T10:00:50.960Z,26.71
2022-08-30T10:02:40.817Z,26.76
2022-08-30T10:04:30.970Z,26.57
2022-08-30T10:06:29.347Z,26.70
2022-08-30T10:08:35.422Z,26.84
2022-08-30T10:10:27.364Z,27.04
2022-08-30T10:12:20.645Z,27.17
2022-08-30T10:14:01.548Z,27.22
2022-08-30T10:15:34.763Z,27.31
2022-08-30T10:17:13.596Z,27.32
2022-08-30T10:19:06.222Z,27.19
2022-08-30T10:20:59.767Z,27.35
2022-08-30T10:22:33.820Z,27.42
2022-08-30T10:24:14.395Z,27.42
2022-08-30T10:26:36.824Z,27.42
2022-08-30T10:28:14.806Z,27.35
2022-08-30T10:29:49.292Z,27.24
2022-08-30T10:33:27.111Z,27.00
2022-08-30T10:35:07.356Z,27.07
2022-08-30T10:36:58.542Z,27.20
2022-08-30T10:38:35.668Z,27.39
2022-08-30T10:40:37.027Z,27.55
2022-08-30T10:42:13.761Z,27.62
2022-08-30T10:44:28.784Z,27.71
2022-08-30T10:46:04.322Z,27.84
2022-08-30T10:47:43.904Z,27.85
2022-08-30T10:49:19.837Z,27.82
2022-08-30T10:50:54.789Z,27.72
2022-08-30T10:52:45.043Z,27.57
2022-08-30T10:54:24.114Z,27.45
2022-08-30T10:56:07.794Z,27.39
2022-08-30T10:57:42.954Z,27.32
2022-08-30T10:59:18.131Z,27.30
2022-08-30T11:01:28.619Z,27.43
2022-08-30T11:03:34.307Z,27.61
2022-08-30T11:05:26.114Z,27.55
2022-08-30T11:07:22.571Z,27.42
2022-08-30T11:09:11.841Z,27.25
2022-08-30T11:11:14.579Z,27.18
2022-08-30T11:12:56.748Z,27.17
2022-08-30T11:14:29.178Z,27.16
2022-08-30T11:16:08.105Z,26.97
2022-08-30T11:17:55.470Z,26.96
2022-08-30T11:19:38.744Z,27.14
2022-08-30T11:21:36.868Z,27.29
2022-08-30T11:23:27.360Z,27.46
2022-08-30T11:25:11.626Z,27.50
2022-08-30T11:26:47.008Z,27.64
2022-08-30T11:28:37.006Z,27.83
2022-08-30T11:30:24.228Z,27.88
2022-08-30T11:32:24.870Z,27.74
2022-08-30T11:33:59.650Z,27.58
2022-08-30T11:35:38.847Z,27.65
2022-08-30T11:37:28.629Z,27.67
2022-08-30T11:39:09.319Z,27.65
2022-08-30T11:40:46.178Z,27.71
2022-08-30T11:42:37.529Z,27.67
2022-08-30T11:44:20.950Z,27.73
2022-08-30T11:45:55.723Z,27.87
2022-08-30T11:47:56.031Z,28.08
2022-08-30T11:49:53.923Z,28.17
2022-08-30T11:54:19.526Z,28.37
2022-08-30T11:56:13.255Z,28.43
2022-08-30T11:58:00.752Z,28.40
2022-08-30T11:59:57.247Z,28.45
2022-08-30T12:01:50.383Z,28.56
2022-08-30T12:03:33.158Z,28.57
2022-08-30T12:05:07.106Z,28.58
2022-08-30T12:06:41.706Z,28.53
2022-08-30T12:08:21.157Z,28.56
2022-08-30T12:09:59.305Z,28.43
2022-08-30T12:11:31.768Z,28.46
2022-08-30T12:13:04.280Z,28.41
2022-08-30T12:14:48.101Z,28.41
2022-08-30T12:17:04.951Z,28.22
2022-08-30T12:18:39.482Z,28.25
2022-08-30T12:20:23.990Z,28.34
2022-08-30T12:22:08.379Z,28.40
2022-08-30T12:23:49.009Z,28.44
2022-08-30T12:25:32.367Z,28.41
2022-08-30T12:27:24.967Z,28.38
2022-08-30T12:29:31.919Z,28.24
2022-08-30T12:31:11.889Z,28.22
2022-08-30T12:32:47.515Z,28.25
2022-08-30T12:34:28.417Z,28.12
2022-08-30T12:36:01.491Z,28.12
2022-08-30T12:37:37.630Z,28.22
2022-08-30T12:39:19.341Z,28.28
2022-08-30T12:40:58.002Z,28.38
2022-08-30T12:42:32.577Z,28.39
2022-08-30T12:44:05.090Z,28.40
2022-08-30T12:45:45.474Z,28.42
2022-08-30T12:47:25.914Z,28.31
2022-08-30T12:48:57.805Z,28.33
2022-08-30T12:50:36.509Z,28.37
2022-08-30T12:52:28.833Z,28.41
2022-08-30T12:54:31.224Z,28.39
2022-08-30T12:56:05.016Z,28.39
2022-08-30T12:58:10.125Z,28.31
2022-08-30T12:59:59.184Z,28.05
2022-08-30T13:01:37.453Z,28.00
2022-08-30T13:03:30.429Z,28.01
2022-08-30T13:05:22.975Z,27.99
2022-08-30T13:06:57.783Z,28.04
2022-08-30T13:08:42.162Z,28.05
2022-08-30T13:10:20.039Z,28.17
2022-08-30T13:11:52.104Z,28.31
2022-08-30T13:13:30.761Z,28.45
2022-08-30T13:15:18.771Z,28.53
2022-08-30T13:17:05.612Z,28.62
2022-08-30T13:18:38.264Z,28.66
2022-08-30T13:20:16.280Z,28.77
2022-08-30T13:21:52.875Z,28.80
2022-08-30T13:23:24.709Z,28.96
2022-08-30T13:24:57.332Z,28.94
2022-08-30T13:26:32.483Z,29.03
2022-08-30T13:28:06.104Z,28.99
2022-08-30T13:29:38.576Z,28.95
2022-08-30T13:31:10.427Z,28.88
2022-08-30T13:32:42.732Z,28.96
2022-08-30T13:34:14.639Z,29.00
2022-08-30T13:35:46.693Z,28.98
2022-08-30T13:39:14.685Z,28.94
2022-08-30T13:40:47.552Z,28.89
2022-08-30T13:42:34.750Z,28.90
2022-08-30T13:44:11.392Z,28.82
2022-08-30T13:45:47.247Z,28.87
2022-08-30T13:47:35.621Z,28.99
2022-08-30T13:51:04.672Z,29.12
2022-08-30T13:52:36.644Z,29.09
2022-08-30T13:54:08.524Z,29.13
2022-08-30T13:55:41.757Z,29.04
2022-08-30T13:57:14.161Z,28.91
2022-08-30T13:58:46.466Z,28.83
2022-08-30T14:00:21.863Z,28.85
2022-08-30T14:02:11.909Z,28.82
2022-08-30T14:06:15.532Z,28.84
2022-08-30T14:07:32.132Z,28.89
2022-08-30T14:09:07.261Z,28.89
2022-08-30T14:10:47.020Z,29.00
2022-08-30T14:12:52.532Z,29.00
2022-08-30T14:14:16.100Z,29.08
2022-08-30T14:17:50.560Z,28.98
2022-08-30T14:19:22.366Z,29.02
2022-08-30T14:20:54.296Z,28.96
2022-08-30T14:22:26.507Z,28.97
2022-08-30T14:23:58.940Z,28.97
2022-08-30T14:25:31.631Z,29.08
2022-08-30T14:27:03.450Z,29.13
2022-08-30T14:28:35.275Z,29.18
2022-08-30T14:30:08.713Z,29.34
2022-08-30T14:31:40.625Z,29.37
2022-08-30T14:33:13.340Z,29.37
2022-08-30T14:34:45.441Z,29.53
2022-08-30T14:36:20.056Z,29.55
2022-08-30T14:37:52.834Z,29.56
2022-08-30T14:39:24.868Z,29.48
2022-08-30T14:40:56.719Z,29.35
2022-08-30T14:42:32.589Z,29.38
2022-08-30T14:44:04.447Z,29.31
2022-08-30T14:45:38.652Z,29.25
2022-08-30T14:47:11.618Z,29.35
2022-08-30T14:48:43.473Z,29.43
2022-08-30T14:50:16.109Z,29.51
2022-08-30T14:51:51.317Z,29.58
2022-08-30T14:53:23.187Z,29.65
2022-08-30T14:54:58.602Z,29.64
2022-08-30T14:56:32.208Z,29.72
2022-08-30T14:58:06.960Z,29.75
2022-08-30T14:59:38.898Z,29.76
2022-08-30T15:01:12.747Z,29.78
2022-08-30T15:02:45.729Z,29.76
2022-08-30T15:04:18.274Z,29.79
2022-08-30T15:05:53.470Z,29.75
2022-08-30T15:07:25.365Z,29.64
2022-08-30T15:08:57.713Z,29.49
2022-08-30T15:10:30.244Z,29.49
2022-08-30T15:12:03.886Z,29.52
2022-08-30T15:13:36.177Z,29.50
2022-08-30T15:15:08.667Z,29.50
2022-08-30T15:16:41.523Z,29.45
2022-08-30T15:18:13.548Z,29.43
2022-08-30T15:19:45.585Z,29.37
2022-08-30T15:21:49.694Z,29.24
2022-08-30T15:23:22.813Z,29.18
2022-08-30T15:25:01.708Z,29.09
2022-08-30T15:26:33.631Z,28.96
2022-08-30T15:28:05.457Z,28.92
2022-08-30T15:29:37.731Z,28.76
2022-08-30T15:31:09.776Z,28.71
2022-08-30T15:32:41.707Z,28.65
2022-08-30T15:34:18.554Z,28.44
2022-08-30T15:35:52.524Z,28.47
2022-08-30T15:37:27.292Z,28.58
2022-08-30T15:39:00.644Z,28.66
2022-08-30T15:40:33.297Z,28.79
2022-08-30T15:42:06.402Z,28.81
2022-08-30T15:43:38.929Z,28.81
2022-08-30T15:45:11.226Z,28.89
2022-08-30T15:46:45.251Z,28.91
2022-08-30T15:48:17.420Z,28.95
2022-08-30T15:49:57.439Z,29.00
2022-08-30T15:51:41.717Z,28.99
2022-08-30T15:53:13.931Z,29.00
2022-08-30T15:54:48.444Z,28.94
2022-08-30T15:56:20.625Z,28.90
2022-08-30T15:57:52.484Z,28.80
2022-08-30T15:59:28.411Z,28.66
2022-08-30T16:01:00.407Z,28.62
2022-08-30T16:02:32.391Z,28.66
2022-08-30T16:04:04.405Z,28.56
2022-08-30T16:05:36.295Z,28.58
2022-08-30T16:07:08.819Z,28.54
2022-08-30T16:08:40.724Z,28.57
2022-08-30T16:10:14.452Z,28.48
2022-08-30T16:11:46.259Z,28.57
2022-08-30T16:13:18.750Z,28.60
2022-08-30T16:14:51.099Z,28.61
2022-08-30T16:16:23.761Z,28.57
2022-08-30T16:17:56.527Z,28.51
2022-08-30T16:19:29.989Z,28.46
2022-08-30T16:21:19.186Z,28.38
2022-08-30T16:22:51.540Z,28.33
2022-08-30T16:24:25.898Z,28.11
2022-08-30T16:26:03.285Z,28.07
2022-08-30T16:27:36.256Z,28.04
2022-08-30T16:29:08.830Z,27.97
2022-08-30T16:30:40.830Z,27.84
2022-08-30T16:32:15.870Z,27.81
2022-08-30T16:33:48.238Z,27.78
2022-08-30T16:35:24.767Z,27.74
2022-08-30T16:36:56.633Z,27.78
2022-08-30T16:38:28.857Z,27.75
2022-08-30T16:40:01.565Z,27.75
2022-08-30T16:41:33.540Z,27.76
2022-08-30T16:43:06.399Z,27.74
2022-08-30T16:44:38.282Z,27.71
2022-08-30T16:46:13.460Z,27.67
2022-08-30T16:47:45.321Z,27.70
2022-08-30T16:49:17.982Z,27.65
2022-08-30T16:50:50.466Z,27.65
2022-08-30T16:52:22.294Z,27.66
2022-08-30T16:54:03.862Z,27.61
2022-08-30T16:55:36.854Z,27.57
2022-08-30T16:57:08.681Z,27.52
2022-08-30T16:58:41.319Z,27.44
2022-08-30T17:00:14.165Z,27.36
2022-08-30T17:01:46.053Z,27.32
2022-08-30T17:03:21.171Z,27.29
2022-08-30T17:04:53.370Z,27.23
2022-08-30T17:06:25.616Z,27.23
2022-08-30T17:07:58.260Z,27.19
2022-08-30T17:09:29.949Z,27.15
2022-08-30T17:11:02.043Z,27.12
2022-08-30T17:12:33.904Z,27.02
2022-08-30T17:14:08.350Z,27.02
2022-08-30T17:15:40.349Z,26.98
2022-08-30T17:17:13.565Z,26.95
2022-08-30T17:18:45.953Z,26.96
2022-08-30T17:20:18.475Z,26.91
2022-08-30T17:21:50.358Z,26.85
2022-08-30T17:23:23.373Z,26.75
2022-08-30T17:24:55.624Z,26.72
2022-08-30T17:26:28.116Z,26.75
2022-08-30T17:28:00.438Z,26.75
2022-08-30T17:29:32.906Z,26.74
2022-08-30T17:31:05.891Z,26.67
2022-08-30T17:32:37.890Z,26.60
2022-08-30T17:34:13.289Z,26.55
2022-08-30T17:35:45.261Z,26.52
2022-08-30T17:37:20.403Z,26.51
2022-08-30T17:38:52.282Z,26.47
2022-08-30T17:40:24.247Z,26.40
2022-08-30T17:41:59.506Z,26.33
2022-08-30T17:43:35.956Z,26.30
2022-08-30T17:45:09.551Z,26.31
2022-08-30T17:46:41.538Z,26.32
2022-08-30T17:48:13.414Z,26.27
2022-08-30T17:49:45.324Z,26.20
2022-08-30T17:51:17.147Z,26.13
2022-08-30T17:52:50.328Z,26.10
2022-08-30T17:54:22.290Z,26.09
2022-08-30T17:55:56.729Z,26.12
2022-08-30T17:57:30.429Z,26.09
2022-08-30T17:59:04.973Z,26.07
2022-08-30T18:00:36.789Z,26.07
2022-08-30T18:02:11.165Z,26.04
2022-08-30T18:03:45.203Z,26.00
2022-08-30T18:05:17.396Z,25.95
2022-08-30T18:06:57.557Z,25.89
2022-08-30T18:08:31.196Z,25.86
2022-08-30T18:10:04.585Z,25.83
2022-08-30T18:11:39.773Z,25.78
2022-08-30T18:13:12.616Z,25.70
2022-08-30T18:14:44.655Z,25.63
2022-08-30T18:16:21.417Z,25.57
2022-08-30T18:17:53.669Z,25.55
2022-08-30T18:19:29.714Z,25.53
2022-08-30T18:21:01.514Z,25.49
2022-08-30T18:22:33.359Z,25.48
2022-08-30T18:24:06.102Z,25.45
2022-08-30T18:25:37.998Z,25.39
2022-08-30T18:27:09.975Z,25.35
2022-08-30T18:28:43.091Z,25.34
2022-08-30T18:30:16.539Z,25.30
2022-08-30T18:31:49.393Z,25.27
2022-08-30T18:33:21.236Z,25.24
2022-08-30T18:34:53.121Z,25.22
2022-08-30T18:36:24.938Z,25.14
2022-08-30T18:37:57.474Z,25.12
2022-08-30T18:41:21.482Z,25.01
2022-08-30T18:42:53.683Z,24.96
2022-08-30T18:44:28.832Z,24.95
2022-08-30T18:46:06.252Z,24.90
2022-08-30T18:47:38.142Z,24.90
2022-08-30T18:49:14.597Z,24.89
2022-08-30T18:50:49.197Z,24.80
2022-08-30T18:52:21.059Z,24.77
2022-08-30T18:53:53.957Z,24.74
2022-08-30T18:55:26.159Z,24.70
2022-08-30T18:56:58.274Z,24.69
2022-08-30T18:58:30.142Z,24.65
2022-08-30T19:00:03.238Z,24.63
2022-08-30T19:03:13.205Z,24.60
2022-08-30T19:04:45.727Z,24.59
2022-08-30T19:06:17.672Z,24.46
2022-08-30T19:07:51.284Z,24.33
2022-08-30T19:09:27.286Z,24.22
2022-08-30T19:11:04.734Z,24.10
2022-08-30T19:12:37.123Z,24.10
2022-08-30T19:14:09.149Z,24.09
2022-08-30T19:15:41.102Z,24.05
2022-08-30T19:17:13.352Z,23.97
2022-08-30T19:18:45.269Z,23.90
2022-08-30T19:20:22.186Z,23.86
2022-08-30T19:21:54.100Z,23.85
2022-08-30T19:23:34.037Z,23.84
2022-08-30T19:25:08.825Z,23.80
2022-08-30T19:26:42.687Z,23.80
2022-08-30T19:28:19.170Z,23.74
2022-08-30T19:29:53.109Z,23.76
2022-08-30T19:31:25.858Z,23.72
2022-08-30T19:32:57.878Z,23.67
2022-08-30T19:34:29.762Z,23.61
2022-08-30T19:36:01.975Z,23.60
2022-08-30T19:37:34.517Z,23.63
2022-08-30T19:39:06.405Z,23.62
2022-08-30T19:40:38.368Z,23.61
2022-08-30T19:42:10.705Z,23.60
2022-08-30T19:43:42.628Z,23.58
2022-08-30T19:45:18.720Z,23.58
2022-08-30T19:46:54.004Z,23.55
2022-08-30T19:48:32.737Z,23.52
2022-08-30T19:50:06.873Z,23.51
2022-08-30T19:51:46.811Z,23.53
2022-08-30T19:53:19.627Z,23.46
2022-08-30T19:54:56.988Z,23.45
2022-08-30T19:56:29.039Z,23.42
2022-08-30T19:58:01.478Z,23.44
2022-08-30T19:59:33.356Z,23.38
2022-08-30T20:01:12.296Z,23.38
2022-08-30T20:02:57.706Z,23.33
2022-08-30T20:04:30.095Z,23.32
2022-08-30T20:06:01.967Z,23.28
2022-08-30T20:07:36.812Z,23.26
2022-08-30T20:09:10.476Z,23.23
2022-08-30T20:10:44.018Z,23.21
2022-08-30T20:12:17.253Z,23.19
2022-08-30T20:13:49.108Z,23.15
2022-08-30T20:15:22.235Z,23.15
2022-08-30T20:16:54.686Z,23.16
2022-08-30T20:18:26.626Z,23.11
2022-08-30T20:20:01.640Z,23.12
2022-08-30T20:21:34.010Z,23.09
2022-08-30T20:23:07.257Z,23.09
2022-08-30T20:24:27.446Z,25.07
2022-08-30T20:24:44.007Z,23.05
2022-08-30T20:26:16.303Z,23.03
2022-08-30T20:27:48.401Z,22.98
2022-08-30T20:29:20.564Z,22.99
2022-08-30T20:30:54.210Z,22.95
2022-08-30T20:32:26.207Z,22.94
2022-08-30T20:33:58.222Z,22.93
2022-08-30T20:35:30.055Z,22.92
2022-08-30T20:37:02.015Z,22.93
2022-08-30T20:38:34.052Z,22.90
2022-08-30T20:40:06.577Z,22.87
2022-08-30T20:41:38.504Z,22.84
2022-08-30T20:43:14.717Z,22.85
2022-08-30T20:44:46.713Z,22.84
2022-08-30T20:46:20.575Z,22.84
2022-08-30T20:47:52.620Z,22.84